Time;durP1;ratioP1;P1;durP2;ratioP2;P2;SDS_P1;SDS_P2;PMS_P1;PMS_P2;Temp;Humidity;BMP_temperature;BMP_pressure;BME280_temperature;BME280_humidity;BME280_pressure;Samples;Min_cycle;Max_cycle;Signal;HPM_P1;HPM_P2
2022/06/24 00:01:53;;;;;;;2.75;2.10;;;;;;;20.00;45.68;98637.81;4350196;32;20138;-72
2022/06/24 00:04:22;;;;;;;4.12;1.80;;;;;;;19.80;45.88;98627.13;4349875;32;20092;-72
2022/06/24 00:06:50;;;;;;;5.55;1.98;;;;;;;19.86;45.95;98633.47;4348354;33;20123;-72
2022/06/24 00:09:18;;;;;;;4.03;2.08;;;;;;;19.84;45.97;98630.19;4348302;33;20083;-72
2022/06/24 00:12:00;;;;;;;2.95;2.03;;;;;;;19.59;46.05;98628.06;4335087;33;20088;-72
2022/06/24 00:14:28;;;;;;;8.73;1.80;;;;;;;19.58;46.13;98637.03;4348330;33;20088;-72
2022/06/24 00:16:57;;;;;;;6.05;1.70;;;;;;;19.70;45.74;98634.63;4348287;33;20154;-72
2022/06/24 00:19:25;;;;;;;7.32;1.83;;;;;;;19.66;45.81;98622.75;4348263;33;20574;-72
2022/06/24 00:22:10;;;;;;;2.87;1.60;;;;;;;19.83;45.28;98628.56;4348239;33;20155;-72
2022/06/24 00:24:39;;;;;;;3.30;1.77;;;;;;;19.73;45.69;98630.72;4334868;33;20122;-72
2022/06/24 00:27:22;;;;;;;4.93;2.45;;;;;;;19.73;45.43;98633.38;4348287;33;20154;-72
2022/06/24 00:29:50;;;;;;;5.05;1.80;;;;;;;19.74;45.47;98635.03;4350257;33;20609;-72
2022/06/24 00:32:31;;;;;;;4.50;1.87;;;;;;;19.69;45.60;98640.94;4350311;33;20110;-72
2022/06/24 00:35:11;;;;;;;1.95;1.65;;;;;;;19.67;45.38;98635.84;4350260;33;20151;-72
2022/06/24 00:37:39;;;;;;;4.25;2.15;;;;;;;19.56;45.49;98639.09;4350423;33;20154;-72
2022/06/24 00:40:10;;;;;;;7.90;2.12;;;;;;;19.47;45.66;98635.75;4350232;33;20091;-72
2022/06/24 00:42:39;;;;;;;2.67;2.00;;;;;;;19.46;45.63;98634.13;4350344;33;20204;-72
2022/06/24 00:45:06;;;;;;;6.25;2.12;;;;;;;19.44;45.72;98633.50;4350129;33;20099;-72
2022/06/24 00:47:36;;;;;;;5.20;1.90;;;;;;;19.40;45.65;98639.41;4350178;33;20099;-72
2022/06/24 00:50:09;;;;;;;4.50;2.33;;;;;;;19.44;45.59;98633.50;4350140;33;20113;-72
2022/06/24 00:52:37;;;;;;;4.10;1.90;;;;;;;19.47;45.44;98629.63;4350094;33;20076;-72
2022/06/24 00:55:05;;;;;;;2.00;1.60;;;;;;;19.45;45.46;98629.00;4350255;33;20096;-72
2022/06/24 00:57:36;;;;;;;3.35;1.62;;;;;;;19.55;45.34;98626.81;4346583;33;112546;-72
2022/06/24 01:00:04;;;;;;;3.97;2.20;;;;;;;19.61;44.96;98627.84;4350118;33;20465;-72
2022/06/24 01:02:33;;;;;;;5.18;2.20;;;;;;;19.78;44.83;98621.19;4349994;33;20107;-72
2022/06/24 01:05:07;;;;;;;3.33;2.05;;;;;;;20.11;44.31;98619.63;4340593;32;20107;-72
2022/06/24 01:07:39;;;;;;;3.75;1.85;;;;;;;19.98;44.20;98623.06;4365003;32;20151;-72
2022/06/24 01:10:08;;;;;;;8.57;1.90;;;;;;;19.81;44.67;98618.12;4364981;32;20075;-72
2022/06/24 01:12:37;;;;;;;2.92;1.87;;;;;;;19.74;44.89;98619.09;4364847;32;20095;-72
2022/06/24 01:15:05;;;;;;;5.68;2.03;;;;;;;19.56;45.34;98617.81;4364776;32;20109;-72
2022/06/24 01:17:32;;;;;;;4.18;1.77;;;;;;;19.52;45.48;98618.41;4364831;32;20440;-72
2022/06/24 01:20:00;;;;;;;5.90;1.73;;;;;;;19.43;45.57;98620.41;4364761;32;20103;-72
2022/06/24 01:22:27;;;;;;;2.78;1.85;;;;;;;19.50;45.47;98618.62;4364754;32;20083;-72
2022/06/24 01:24:55;;;;;;;4.57;1.80;;;;;;;19.31;45.72;98614.84;4364875;32;20090;-72
2022/06/24 01:27:22;;;;;;;5.35;2.10;;;;;;;19.31;45.93;98614.84;4364775;32;20782;-72
2022/06/24 01:29:49;;;;;;;3.37;2.17;;;;;;;19.24;45.99;98617.50;4364726;32;20472;-72
2022/06/24 01:32:17;;;;;;;5.82;2.28;;;;;;;19.29;46.04;98614.25;4364793;32;20083;-72
2022/06/24 01:34:44;;;;;;;6.87;1.95;;;;;;;19.29;45.79;98609.72;4364706;32;20154;-72
2022/06/24 01:37:11;;;;;;;5.25;2.00;;;;;;;19.28;46.04;98613.41;4364816;32;20166;-72
2022/06/24 01:39:38;;;;;;;3.33;1.95;;;;;;;19.19;46.33;98617.25;4364531;32;20513;-72
2022/06/24 01:42:07;;;;;;;3.10;1.85;;;;;;;19.15;46.46;98613.31;4364610;32;20158;-72
2022/06/24 01:44:34;;;;;;;4.97;2.00;;;;;;;19.09;46.68;98612.31;4364533;32;20098;-72
2022/06/24 01:47:02;;;;;;;8.63;2.30;;;;;;;19.07;46.76;98606.34;4364525;32;20126;-72
2022/06/24 01:49:30;;;;;;;4.60;2.30;;;;;;;19.41;46.10;98603.84;4364595;32;20098;-72
2022/06/24 01:51:59;;;;;;;15.70;2.42;;;;;;;19.37;46.09;98602.62;4364686;32;20091;-72
2022/06/24 01:54:27;;;;;;;8.70;2.20;;;;;;;19.00;46.83;98600.19;4364628;32;20095;-72
2022/06/24 01:56:54;;;;;;;6.30;1.92;;;;;;;19.11;46.94;98598.81;4364492;32;20155;-72
2022/06/24 01:59:22;;;;;;;5.18;1.95;;;;;;;19.06;46.69;98602.06;4364491;32;20461;-72
2022/06/24 02:01:49;;;;;;;2.28;1.60;;;;;;;19.10;46.83;98590.03;4364405;32;20087;-72
2022/06/24 02:04:17;;;;;;;3.33;2.28;;;;;;;19.27;46.57;98592.34;4364657;32;20091;-72
2022/06/24 02:06:44;;;;;;;3.60;1.98;;;;;;;19.20;46.39;98602.94;4364630;32;20752;-72
2022/06/24 02:09:11;;;;;;;8.30;2.30;;;;;;;19.14;46.63;98599.25;4351165;32;20559;-72
2022/06/24 02:14:24;;;;;;;2.87;1.77;;;;;;;18.79;47.63;98595.75;4364574;32;20157;-72
2022/06/24 02:16:52;;;;;;;3.12;1.83;;;;;;;18.82;47.46;98592.72;4351098;32;20158;-72
2022/06/24 02:19:20;;;;;;;4.07;1.80;;;;;;;18.95;47.46;98598.09;4351162;32;20090;-72
2022/06/24 02:21:47;;;;;;;5.00;2.00;;;;;;;18.86;47.84;98601.94;4364355;32;20117;-72
2022/06/24 02:24:15;;;;;;;3.58;2.05;;;;;;;18.82;48.03;98599.81;4364666;32;20449;-72
2022/06/24 02:26:45;;;;;;;3.62;2.30;;;;;;;18.80;48.18;98598.22;4364585;32;20149;-72
2022/06/24 02:29:12;;;;;;;2.58;2.05;;;;;;;18.85;48.40;98597.66;4364267;32;20114;-72
2022/06/24 02:31:40;;;;;;;3.72;2.00;;;;;;;18.93;48.12;98602.81;4364306;32;20110;-72
2022/06/24 02:34:08;;;;;;;2.85;2.00;;;;;;;18.72;48.57;98594.88;4364391;32;20112;-72
2022/06/24 02:36:36;;;;;;;3.90;2.22;;;;;;;18.65;48.69;98594.00;4364491;32;20121;-72
2022/06/24 02:39:03;;;;;;;2.97;1.98;;;;;;;18.58;48.97;98592.13;4351204;32;20555;-72
2022/06/24 02:41:30;;;;;;;10.15;2.00;;;;;;;18.56;48.71;98604.78;4364175;32;20075;-72
2022/06/24 02:43:57;;;;;;;4.28;2.22;;;;;;;18.78;48.52;98604.72;4364245;32;20128;-72
2022/06/24 02:46:25;;;;;;;2.83;1.62;;;;;;;18.67;48.68;98605.25;4364230;32;20146;-72
2022/06/24 02:48:53;;;;;;;6.90;2.10;;;;;;;18.69;48.44;98601.38;4364192;32;20178;-72
2022/06/24 02:51:20;;;;;;;4.03;2.12;;;;;;;18.70;48.53;98604.84;4363517;32;20117;-72
2022/06/24 02:53:48;;;;;;;2.60;1.75;;;;;;;18.77;48.40;98608.38;4363990;32;20118;-72
2022/06/24 02:56:15;;;;;;;4.80;1.90;;;;;;;18.72;48.44;98606.31;4350887;32;20129;-72
2022/06/24 02:58:42;;;;;;;2.35;1.80;;;;;;;18.77;48.51;98608.38;4364154;32;20099;-72
2022/06/24 03:01:10;;;;;;;2.72;1.77;;;;;;;18.82;48.63;98610.44;4363940;32;20079;-72
2022/06/24 03:03:38;;;;;;;3.50;2.17;;;;;;;18.78;48.88;98604.72;4364144;32;20480;-72
2022/06/24 03:06:05;;;;;;;8.93;1.85;;;;;;;18.74;49.09;98608.75;4364074;32;20421;-72
2022/06/24 03:08:33;;;;;;;2.83;1.75;;;;;;;18.82;49.05;98611.28;4364126;32;20541;-72
2022/06/24 03:11:00;;;;;;;4.10;1.67;;;;;;;18.79;49.13;98601.88;4363968;32;20072;-72
2022/06/24 03:13:30;;;;;;;2.40;1.62;;;;;;;18.69;49.51;98604.03;4364007;32;20092;-72
2022/06/24 03:15:58;;;;;;;8.55;2.30;;;;;;;18.84;49.33;98611.91;4363988;32;20449;-72
2022/06/24 03:18:25;;;;;;;3.33;1.62;;;;;;;18.77;49.66;98605.72;4363843;32;20082;-72
2022/06/24 03:20:52;;;;;;;4.95;2.03;;;;;;;18.91;49.25;98606.66;4363903;32;20075;-72
2022/06/24 03:23:20;;;;;;;2.72;2.20;;;;;;;19.12;48.89;98611.06;4364122;32;20095;-72
2022/06/24 03:25:47;;;;;;;4.07;1.80;;;;;;;19.18;49.02;98612.94;4363766;32;20113;-72
2022/06/24 03:28:15;;;;;;;7.87;2.40;;;;;;;19.13;48.79;98612.72;4363826;32;20087;-72
2022/06/24 03:30:42;;;;;;;3.30;2.00;;;;;;;19.22;49.08;98610.72;4350352;32;20196;-72
2022/06/24 03:33:09;;;;;;;5.28;1.87;;;;;;;19.27;48.94;98617.09;4363626;32;20090;-72
2022/06/24 03:35:37;;;;;;;3.35;1.60;;;;;;;19.49;48.11;98611.66;4363663;32;20099;-72
2022/06/24 03:38:04;;;;;;;4.15;1.77;;;;;;;19.53;48.26;98610.25;4363617;32;20091;-72
2022/06/24 03:40:32;;;;;;;2.85;1.80;;;;;;;19.49;48.16;98620.44;4363577;32;20091;-72
2022/06/24 03:42:59;;;;;;;5.93;1.95;;;;;;;19.45;47.88;98621.84;4363444;32;20111;-72
2022/06/24 03:45:26;;;;;;;4.15;1.98;;;;;;;19.59;48.10;98617.41;4363128;32;20170;-72
2022/06/24 03:47:53;;;;;;;3.15;1.77;;;;;;;19.79;47.71;98622.81;4363378;32;20095;-72
2022/06/24 03:50:21;;;;;;;2.55;1.70;;;;;;;19.86;47.41;98625.50;4363554;32;20087;-72
2022/06/24 03:52:48;;;;;;;13.80;2.08;;;;;;;19.89;47.30;98626.94;4363366;32;20158;-72
2022/06/24 03:55:15;;;;;;;8.85;2.20;;;;;;;19.78;47.65;98618.53;4363320;32;20174;-72
2022/06/24 03:57:42;;;;;;;6.57;1.92;;;;;;;20.10;47.45;98620.63;4363335;32;20098;-72
2022/06/24 04:00:10;;;;;;;4.40;2.10;;;;;;;20.15;47.05;98621.69;4363225;32;20138;-72
2022/06/24 04:02:37;;;;;;;2.90;1.92;;;;;;;20.12;47.51;98627.41;4363749;32;20393;-72
2022/06/24 04:05:14;;;;;;;11.50;2.47;;;;;;;20.14;47.07;98636.00;4365454;32;20095;-72
2022/06/24 04:07:41;;;;;;;8.70;2.00;;;;;;;20.07;47.42;98634.34;4365319;32;20107;-72
2022/06/24 04:10:08;;;;;;;5.30;2.28;;;;;;;20.19;47.49;98632.72;4365312;32;20095;-72
2022/06/24 04:12:35;;;;;;;2.87;1.77;;;;;;;20.26;47.32;98628.22;4365135;32;20103;-72
2022/06/24 04:15:17;;;;;;;4.25;2.28;;;;;;;20.26;47.18;98622.06;4365143;32;20121;-72
2022/06/24 04:17:48;;;;;;;5.68;1.83;;;;;;;20.25;47.38;98623.94;4365180;32;20087;-72
2022/06/24 04:20:17;;;;;;;5.45;2.10;;;;;;;20.27;47.43;98637.84;4365146;32;20067;-72
2022/06/24 04:22:45;;;;;;;4.93;1.87;;;;;;;20.30;47.36;98632.13;4365036;32;20192;-72
2022/06/24 04:25:12;;;;;;;5.25;1.90;;;;;;;20.31;47.20;98630.28;4364762;32;20174;-72
2022/06/24 04:27:40;;;;;;;5.47;2.22;;;;;;;20.70;46.93;98626.03;4365081;32;20116;-72
2022/06/24 04:33:38;;;;;;;6.22;2.47;;;;;;;21.05;46.02;98639.06;4365119;32;20117;-72
2022/06/24 04:36:13;;;;;;;3.35;2.03;;;;;;;21.06;46.10;98638.88;4365139;32;20090;-74
2022/06/24 04:38:40;;;;;;;;;;;;;;;21.03;45.84;98638.44;4365558;32;20417;-74
2022/06/24 04:41:18;;;;;;;3.03;1.87;;;;;;;20.99;45.75;98642.56;4365190;32;20021;-74
2022/06/24 04:43:45;;;;;;;;;;;;;;;21.22;45.16;98640.25;4365363;32;20084;-74
2022/06/24 04:46:13;;;;;;;7.85;1.67;;;;;;;21.35;45.20;98641.25;4365068;32;20002;-74
2022/06/24 04:48:40;;;;;;;5.00;2.00;;;;;;;21.47;44.43;98641.41;4364945;32;20160;-74
2022/06/24 04:51:11;;;;;;;2.95;1.65;;;;;;;21.34;45.34;98640.41;4365205;32;20095;-74
2022/06/24 04:53:39;;;;;;;4.03;1.67;;;;;;;21.45;44.86;98630.94;4365028;32;20095;-74
2022/06/24 04:56:06;;;;;;;27.83;2.45;;;;;;;21.47;44.75;98638.72;4364907;32;20095;-73
2022/06/24 04:58:33;;;;;;;4.15;1.73;;;;;;;21.53;44.44;98635.25;4364731;32;20431;-73
2022/06/24 05:01:00;;;;;;;3.58;2.25;;;;;;;21.42;44.94;98645.53;4364815;32;20110;-73
2022/06/24 05:03:27;;;;;;;3.92;2.00;;;;;;;21.57;45.03;98639.13;4364713;32;20095;-73
2022/06/24 05:05:55;;;;;;;1.92;1.62;;;;;;;21.51;44.34;98635.47;4364669;32;20095;-73
2022/06/24 05:08:22;;;;;;;9.68;1.67;;;;;;;21.96;43.82;98632.78;4364666;32;20091;-73
2022/06/24 05:14:28;;;;;;;3.30;1.75;;;;;;;22.13;43.40;98632.28;4363285;32;20706;-73
2022/06/24 05:16:59;;;;;;;3.17;1.83;;;;;;;22.17;42.46;98644.16;4363792;32;20158;-73
2022/06/24 05:19:26;;;;;;;6.18;1.67;;;;;;;22.35;42.77;98634.59;4364277;32;20150;-74
2022/06/24 05:21:54;;;;;;;3.58;1.87;;;;;;;22.32;42.57;98639.34;4364551;32;20095;-73
2022/06/24 05:27:52;;;;;;;6.35;1.90;;;;;;;22.49;42.63;98636.97;4364359;32;20118;-73
2022/06/24 05:30:19;;;;;;;4.55;2.12;;;;;;;22.46;41.48;98637.37;4358031;32;20151;-73
2022/06/24 05:32:46;;;;;;;10.98;2.42;;;;;;;22.64;41.49;98641.16;4364258;32;20551;-73
2022/06/24 05:35:13;;;;;;;3.40;1.87;;;;;;;22.94;41.77;98641.28;4364605;32;20103;-74
2022/06/24 05:37:41;;;;;;;7.28;2.03;;;;;;;23.03;40.27;98647.19;4364595;32;20087;-74
2022/06/24 05:40:09;;;;;;;10.35;1.77;;;;;;;22.89;40.24;98648.31;4364306;32;20074;-73
2022/06/24 05:42:36;;;;;;;3.85;1.52;;;;;;;23.02;40.49;98657.03;4364463;32;20149;-74
2022/06/24 05:45:03;;;;;;;3.67;1.77;;;;;;;23.41;39.38;98654.19;4364406;32;20174;-74
2022/06/24 05:47:30;;;;;;;2.67;1.70;;;;;;;23.31;40.00;98653.91;4364634;32;20145;-74
2022/06/24 05:49:58;;;;;;;21.52;2.37;;;;;;;23.32;40.04;98655.53;4351020;32;20087;-74
2022/06/24 05:55:11;;;;;;;12.55;2.20;;;;;;;23.24;39.94;98661.16;4364626;32;20118;-74
2022/06/24 05:57:38;;;;;;;6.10;2.00;;;;;;;22.98;39.86;98663.03;4364582;32;20157;-74
2022/06/24 06:03:36;;;;;;;4.80;2.10;;;;;;;23.52;40.17;98663.31;4364201;32;20157;-74
2022/06/24 06:06:03;;;;;;;2.95;1.50;;;;;;;23.84;39.85;98663.94;4363741;32;20096;-74
2022/06/24 06:08:30;;;;;;;3.42;1.50;;;;;;;23.73;38.75;98662.84;4364469;32;20111;-74
2022/06/24 06:10:58;;;;;;;8.95;2.12;;;;;;;23.53;38.87;98664.97;4364025;32;20087;-74
2022/06/24 06:13:25;;;;;;;3.95;1.60;;;;;;;23.69;38.66;98663.53;4364227;32;20087;-74
2022/06/24 06:15:52;;;;;;;9.32;2.20;;;;;;;23.72;38.54;98663.91;4364185;32;20191;-75
2022/06/24 06:18:19;;;;;;;2.87;1.75;;;;;;;23.63;38.72;98661.75;4364143;32;20108;-73
2022/06/24 06:20:48;;;;;;;16.67;2.15;;;;;;;23.87;38.99;98660.03;4364277;32;20152;-74
2022/06/24 06:23:15;;;;;;;10.98;1.87;;;;;;;23.99;38.24;98660.09;4364040;32;20090;-74
2022/06/24 06:29:12;;;;;;;4.55;2.03;;;;;;;24.26;38.75;98655.16;4364229;32;20149;-74
2022/06/24 06:31:40;;;;;;;5.40;2.03;;;;;;;24.13;38.50;98655.34;4364211;32;20103;-74
2022/06/24 06:37:37;;;;;;;4.30;1.85;;;;;;;24.09;37.15;98646.97;4359899;32;20133;-75
2022/06/24 06:40:05;;;;;;;1.98;1.65;;;;;;;24.30;38.26;98648.31;4364129;32;20095;-74
2022/06/24 06:42:32;;;;;;;3.40;1.90;;;;;;;24.46;36.58;98654.84;4364316;32;20083;-73
2022/06/24 06:45:00;;;;;;;6.03;1.77;;;;;;;24.55;36.97;98650.78;4364120;32;20499;-73
2022/06/24 06:47:28;;;;;;;5.90;2.05;;;;;;;24.62;36.93;98642.69;4363732;32;20587;-73
2022/06/24 06:49:55;;;;;;;7.57;2.10;;;;;;;24.61;36.65;98647.22;4364014;32;20754;-74
2022/06/24 06:52:22;;;;;;;5.53;2.20;;;;;;;24.80;37.27;98644.44;4364073;32;20156;-74
2022/06/24 06:54:49;;;;;;;3.42;2.03;;;;;;;24.91;36.82;98645.50;4364169;32;20146;-74
2022/06/24 07:00:35;;;;;;;4.95;2.00;;;;;;;25.30;37.30;98643.97;4364159;32;20122;-74
2022/06/24 07:03:03;;;;;;;3.37;1.60;;;;;;;25.50;34.71;98640.06;4364037;32;20467;-74
2022/06/24 07:05:31;;;;;;;6.90;1.80;;;;;;;25.28;35.92;98639.84;4363759;32;20075;-75
2022/06/24 07:07:58;;;;;;;3.30;1.80;;;;;;;25.38;35.08;98640.09;4363900;32;20099;-75
2022/06/24 07:10:25;;;;;;;5.05;1.83;;;;;;;25.09;36.73;98648.03;4364006;32;20106;-74
2022/06/24 07:12:52;;;;;;;6.35;1.62;;;;;;;24.92;35.31;98645.25;4363853;32;20087;-72
2022/06/24 07:15:20;;;;;;;10.57;2.00;;;;;;;25.39;35.69;98643.56;4363830;32;20090;-73
2022/06/24 07:17:47;;;;;;;3.15;1.77;;;;;;;25.64;35.88;98644.09;4363834;32;20099;-73
2022/06/24 07:20:14;;;;;;;2.80;1.73;;;;;;;25.79;35.39;98643.56;4363664;32;20122;-72
2022/06/24 07:22:41;;;;;;;4.68;1.80;;;;;;;26.03;35.93;98648.88;4363608;32;20454;-72
2022/06/24 07:25:09;;;;;;;2.62;1.90;;;;;;;26.27;34.72;98640.66;4363839;32;20099;-73
2022/06/24 07:30:54;;;;;;;6.47;1.85;;;;;;;26.19;33.97;98641.88;4361411;32;20141;-72
2022/06/24 07:33:23;;;;;;;3.17;1.90;;;;;;;26.14;34.52;98647.19;4363198;32;20078;-74
2022/06/24 07:35:50;;;;;;;7.00;1.75;;;;;;;26.15;33.68;98643.44;4363697;32;20163;-74
2022/06/24 07:38:19;;;;;;;2.00;1.80;;;;;;;26.05;33.86;98648.62;4357979;32;20179;-73
2022/06/24 07:44:16;;;;;;;3.10;1.90;;;;;;;25.90;33.98;98646.44;4361848;32;20149;-73
2022/06/24 07:46:43;;;;;;;9.32;1.90;;;;;;;26.23;35.64;98640.34;4363798;32;20170;-73
2022/06/24 07:49:10;;;;;;;5.18;1.67;;;;;;;26.23;34.59;98634.97;4363850;32;20095;-73
2022/06/24 07:51:38;;;;;;;3.53;1.73;;;;;;;26.12;34.07;98639.38;4364053;32;20107;-74
2022/06/24 07:54:07;;;;;;;4.80;2.08;;;;;;;26.21;36.56;98635.22;4364013;32;20163;-74
2022/06/24 07:59:23;;;;;;;3.03;1.58;;;;;;;26.15;34.15;98624.66;4363748;32;20091;-74
2022/06/24 08:01:52;;;;;;;3.45;1.80;;;;;;;26.08;34.25;98624.00;4363643;32;20103;-72
2022/06/24 08:04:20;;;;;;;7.93;1.90;;;;;;;26.20;36.50;98633.59;4363609;32;20099;-74
2022/06/24 08:06:49;;;;;;;3.47;1.80;;;;;;;26.39;36.39;98622.63;4363735;32;20460;-73
2022/06/24 08:09:17;;;;;;;3.17;1.80;;;;;;;26.66;34.65;98636.25;4363818;32;20100;-74
2022/06/24 08:11:45;;;;;;;3.22;2.00;;;;;;;26.82;33.97;98631.09;4363861;32;20075;-74
2022/06/24 08:17:43;;;;;;;1.83;1.50;;;;;;;27.12;32.77;98625.34;4363790;32;20105;-74
2022/06/24 08:23:41;;;;;;;4.97;1.87;;;;;;;27.60;34.86;98622.97;4363120;32;20426;-74
2022/06/24 08:26:08;;;;;;;11.25;2.03;;;;;;;27.75;33.78;98630.41;4363503;32;20110;-74
2022/06/24 08:28:35;;;;;;;6.05;1.80;;;;;;;27.80;33.58;98623.19;4363777;32;20531;-74
2022/06/24 08:31:03;;;;;;;4.12;1.70;;;;;;;28.22;33.01;98620.91;4362903;32;20092;-74
2022/06/24 08:37:02;;;;;;;4.40;1.60;;;;;;;27.97;32.37;98625.81;4364884;32;20117;-74
2022/06/24 08:39:29;;;;;;;3.15;2.00;;;;;;;28.10;31.83;98623.75;4364664;32;20091;-74
2022/06/24 08:41:58;;;;;;;2.28;1.60;;;;;;;28.08;31.64;98621.31;4365011;32;20103;-74
2022/06/24 08:44:26;;;;;;;4.72;2.05;;;;;;;27.85;31.19;98621.63;4364978;32;20169;-73
2022/06/24 08:46:53;;;;;;;6.53;1.85;;;;;;;27.68;31.61;98619.84;4364883;32;20145;-73
2022/06/24 08:49:21;;;;;;;5.47;1.73;;;;;;;27.56;31.84;98622.66;4364286;32;20112;-73
2022/06/24 08:51:48;;;;;;;3.35;1.90;;;;;;;27.87;31.88;98620.28;4351353;32;20381;-73
2022/06/24 08:54:17;;;;;;;4.85;1.75;;;;;;;27.91;31.06;98628.69;4364589;32;20112;-73
2022/06/24 09:00:23;;;;;;;19.62;2.33;;;;;;;28.11;31.71;98620.00;4364402;32;20400;-73
2022/06/24 09:02:50;;;;;;;4.78;1.75;;;;;;;28.41;31.24;98621.34;4364581;32;20442;-73
2022/06/24 09:05:17;;;;;;;4.82;2.17;;;;;;;28.14;31.19;98616.81;4364399;32;20127;-73
2022/06/24 09:11:15;;;;;;;6.78;1.85;;;;;;;28.24;31.94;98610.72;4364243;32;20727;-73
2022/06/24 09:13:52;;;;;;;5.22;1.52;;;;;;;28.46;30.22;98614.13;4364868;32;20130;-74
2022/06/24 09:16:20;;;;;;;2.72;1.70;;;;;;;29.04;29.39;98616.13;4364883;32;20742;-73
2022/06/24 09:18:51;;;;;;;4.40;1.67;;;;;;;29.10;30.46;98615.06;4364748;32;20087;-74
2022/06/24 09:24:50;;;;;;;5.68;1.80;;;;;;;29.38;28.52;98613.06;4364403;32;20508;-74
2022/06/24 09:27:17;;;;;;;3.65;1.40;;;;;;;29.46;30.21;98607.13;4364473;32;20086;-73
2022/06/24 09:29:50;;;;;;;1.73;1.40;;;;;;;29.38;31.04;98618.44;4351257;32;20137;-73
2022/06/24 09:32:17;;;;;;;4.22;1.75;;;;;;;29.66;27.21;98617.19;4364450;32;20133;-73
2022/06/24 09:35:07;;;;;;;4.95;1.90;;;;;;;29.34;27.60;98603.84;4364138;32;20095;-74
2022/06/24 09:37:35;;;;;;;6.87;1.75;;;;;;;29.15;28.36;98617.78;4364178;32;20579;-73
2022/06/24 09:43:33;;;;;;;1.87;1.67;;;;;;;29.83;29.61;98613.50;4364469;32;20117;-74
2022/06/24 09:46:01;;;;;;;6.87;2.03;;;;;;;30.00;27.75;98615.94;4364302;32;20158;-73
2022/06/24 09:48:32;;;;;;;8.05;1.70;;;;;;;30.02;27.73;98614.56;4364180;32;20584;-73
2022/06/24 09:54:31;;;;;;;3.12;1.60;;;;;;;29.65;29.46;98606.66;4364344;32;20211;-73
2022/06/24 09:56:59;;;;;;;3.97;1.70;;;;;;;30.13;29.34;98606.47;4351141;32;20444;-73
2022/06/24 10:02:57;;;;;;;4.60;1.65;;;;;;;30.11;29.93;98597.84;4364336;32;20108;-74
2022/06/24 10:05:26;;;;;;;4.82;1.62;;;;;;;29.14;28.10;98594.56;4363760;32;20075;-73
2022/06/24 10:07:55;;;;;;;6.80;1.67;;;;;;;29.15;28.34;98596.19;4364187;32;20095;-73
2022/06/24 10:10:22;;;;;;;3.78;1.83;;;;;;;29.50;28.51;98592.03;4364062;32;20516;-73
2022/06/24 10:12:54;;;;;;;7.25;1.58;;;;;;;29.71;29.60;98586.69;4363941;32;20094;-73
2022/06/24 10:15:21;;;;;;;3.00;1.60;;;;;;;29.42;30.48;98584.47;4350971;32;20657;-73
2022/06/24 10:17:49;;;;;;;3.62;1.52;;;;;;;29.63;30.77;98589.91;4364386;32;20166;-74
2022/06/24 10:20:17;;;;;;;6.87;1.90;;;;;;;29.53;29.99;98578.00;4350990;32;20133;-72
2022/06/24 10:22:47;;;;;;;1.83;1.60;;;;;;;29.99;30.17;98574.59;4351089;32;20129;-72
2022/06/24 10:25:18;;;;;;;2.60;1.40;;;;;;;29.96;29.19;98577.03;4364218;32;20125;-72
2022/06/24 10:27:58;;;;;;;10.75;2.45;;;;;;;30.06;28.84;98569.72;4350919;32;20107;-72
2022/06/24 10:30:54;;;;;;;4.95;1.60;;;;;;;30.34;29.92;98566.75;4363819;32;20153;-72
2022/06/24 10:33:25;;;;;;;6.80;1.40;;;;;;;30.36;29.31;98561.91;4364110;32;20125;-72
2022/06/24 10:36:03;;;;;;;5.32;1.85;;;;;;;30.80;29.32;98547.78;4364307;32;20062;-72
2022/06/24 10:38:42;;;;;;;9.00;1.65;;;;;;;30.85;27.41;98544.22;4364141;32;20493;-72
2022/06/24 10:41:11;;;;;;;11.73;2.62;;;;;;;30.66;27.11;98550.25;4364384;32;20079;-72
2022/06/24 10:47:11;;;;;;;9.70;2.22;;;;;;;30.57;28.56;98547.28;4364052;32;20125;-72
2022/06/24 10:52:38;;;;;;;35.75;3.55;;;;;;;30.13;26.48;98533.53;4357908;32;20083;-71
2022/06/24 10:58:36;;;;;;;5.72;1.48;;;;;;;31.08;30.07;98542.81;4364017;32;20149;-73
2022/06/24 11:01:06;;;;;;;2.12;1.50;;;;;;;31.11;28.96;98542.25;4363806;32;20473;-74
2022/06/24 11:03:37;;;;;;;6.05;2.30;;;;;;;31.40;28.44;98536.16;4363957;32;20146;-73
2022/06/24 11:06:07;;;;;;;7.30;2.20;;;;;;;31.10;26.39;98548.78;4350670;32;20117;-73
2022/06/24 11:12:28;;;;;;;5.37;1.60;;;;;;;31.74;25.69;98530.00;4363425;32;20137;-73
2022/06/24 11:14:57;;;;;;;2.12;1.80;;;;;;;31.58;28.23;98519.25;4364066;32;20125;-73
2022/06/24 11:17:25;;;;;;;5.47;1.60;;;;;;;30.83;25.79;98519.38;4363863;32;20161;-72
2022/06/24 11:19:53;;;;;;;5.53;2.00;;;;;;;30.80;25.67;98515.31;4363730;32;20095;-72
2022/06/24 11:22:20;;;;;;;3.37;1.60;;;;;;;30.60;25.53;98500.78;4363564;32;20386;-72
2022/06/24 11:24:48;;;;;;;3.30;1.80;;;;;;;30.70;26.23;98509.94;4363849;32;20471;-72
2022/06/24 11:30:46;;;;;;;2.83;1.65;;;;;;;31.24;26.44;98509.19;4360313;32;20101;-72
2022/06/24 11:36:44;;;;;;;1.55;1.45;;;;;;;31.42;26.50;98510.44;4360207;32;20121;-72
2022/06/24 11:39:12;;;;;;;4.87;1.60;;;;;;;31.60;26.50;98497.31;4363575;32;20090;-72
2022/06/24 11:45:10;;;;;;;4.22;1.70;;;;;;;31.47;25.57;98496.03;4363350;32;20125;-72
2022/06/24 11:47:37;;;;;;;6.12;1.60;;;;;;;31.75;25.07;98486.41;4363059;32;20099;-73
2022/06/24 11:53:35;;;;;;;5.25;1.67;;;;;;;31.40;26.64;98499.06;4363012;32;20558;-72
2022/06/24 11:59:33;;;;;;;6.15;1.83;;;;;;;31.53;25.05;98475.16;4363142;32;20117;-72
2022/06/24 12:02:00;;;;;;;7.70;1.92;;;;;;;31.34;24.93;98475.00;4362979;32;20083;-72
2022/06/24 12:04:28;;;;;;;4.00;1.50;;;;;;;31.32;26.17;98473.38;4349726;32;20083;-72
2022/06/24 12:07:06;;;;;;;4.90;1.60;;;;;;;31.16;25.79;98468.34;4363074;32;20571;-72
2022/06/24 12:13:08;;;;;;;4.07;1.70;;;;;;;31.30;27.68;98458.53;4363019;32;20141;-72
2022/06/24 12:15:41;;;;;;;4.18;1.67;;;;;;;31.03;25.29;98464.38;4362989;32;20546;-72
2022/06/24 12:21:39;;;;;;;1.67;1.48;;;;;;;31.74;25.79;98457.69;4358972;32;20587;-72
2022/06/24 12:24:23;;;;;;;5.65;1.67;;;;;;;31.48;26.70;98459.75;4364026;32;20091;-72
2022/06/24 12:26:58;;;;;;;2.25;1.60;;;;;;;31.79;26.60;98463.03;4365212;32;20588;-72
2022/06/24 12:29:33;;;;;;;3.05;1.40;;;;;;;31.50;27.00;98465.69;4365028;32;20137;-72
2022/06/24 12:35:34;;;;;;;1.90;1.40;;;;;;;31.49;25.08;98461.37;4365127;32;20126;-72
2022/06/24 12:41:46;;;;;;;4.70;1.73;;;;;;;31.38;26.11;98451.72;4365023;32;20146;-72
2022/06/24 12:53:50;;;;;;;2.87;1.27;;;;;;;32.34;24.94;98438.44;4365059;32;20125;-72
2022/06/24 12:56:17;;;;;;;3.20;1.80;;;;;;;32.98;25.40;98430.03;4364995;32;20369;-72
2022/06/24 12:58:44;;;;;;;4.18;2.12;;;;;;;32.91;23.93;98418.75;4364736;32;20095;-72
2022/06/24 13:01:11;;;;;;;4.70;1.80;;;;;;;33.46;26.50;98412.81;4364540;32;20091;-72
2022/06/24 13:07:10;;;;;;;6.20;1.58;;;;;;;33.29;23.49;98402.47;4363618;32;20157;-72
2022/06/24 13:09:37;;;;;;;3.87;1.55;;;;;;;33.70;23.49;98390.09;4364678;32;20117;-72
2022/06/24 13:12:05;;;;;;;6.55;1.75;;;;;;;33.94;22.45;98379.88;4364705;32;20125;-72
2022/06/24 13:14:32;;;;;;;6.97;1.80;;;;;;;33.50;22.95;98380.41;4364856;32;20102;-72
2022/06/24 13:16:59;;;;;;;3.37;1.70;;;;;;;32.97;23.16;98368.72;4364654;32;20091;-72
2022/06/24 13:19:28;;;;;;;2.40;1.50;;;;;;;32.80;22.76;98379.31;4364802;32;20146;-72
2022/06/24 13:21:55;;;;;;;5.70;1.40;;;;;;;32.87;23.14;98369.69;4364789;32;20114;-72
2022/06/24 13:27:53;;;;;;;11.12;2.28;;;;;;;32.33;23.13;98377.16;4362037;32;20109;-72
2022/06/24 13:30:20;;;;;;;10.85;1.92;;;;;;;32.08;23.68;98363.88;4364331;32;20078;-72
2022/06/24 13:32:48;;;;;;;1.85;1.60;;;;;;;31.79;24.55;98373.66;4364427;32;20115;-72
2022/06/24 13:35:15;;;;;;;3.22;1.62;;;;;;;32.37;24.46;98372.78;4364213;32;20129;-72
2022/06/24 13:37:42;;;;;;;6.50;2.42;;;;;;;33.06;26.12;98375.09;4364036;32;20110;-72
2022/06/24 13:40:10;;;;;;;6.65;1.70;;;;;;;33.40;24.20;98375.94;4364254;32;20084;-72
2022/06/24 13:42:37;;;;;;;4.47;1.70;;;;;;;33.47;23.84;98389.16;4364106;32;20099;-72
2022/06/24 13:48:35;;;;;;;3.12;1.80;;;;;;;32.58;23.22;98374.41;4364239;32;20157;-72
2022/06/24 13:51:03;;;;;;;6.85;1.42;;;;;;;32.50;23.32;98368.53;4364112;32;20120;-72
2022/06/24 13:53:30;;;;;;;4.35;1.62;;;;;;;32.48;24.42;98369.94;4364088;32;20122;-72
2022/06/24 13:55:58;;;;;;;2.50;1.52;;;;;;;32.71;24.06;98366.38;4364047;32;20181;-72
2022/06/24 13:58:25;;;;;;;8.10;1.80;;;;;;;32.52;22.70;98369.06;4350865;32;20103;-72